Time;durP1;ratioP1;P1;durP2;ratioP2;P2;SDS_P1;SDS_P2;PMS_P1;PMS_P2;Temp;Humidity;BMP_temperature;BMP_pressure;BME280_temperature;BME280_humidity;BME280_pressure;Samples;Min_cycle;Max_cycle;Signal;HPM_P1;HPM_P2
2023/02/26 00:00:02;;;;;;;3.2;3.1;;;;;;;0.5;100.0;101610;;;;
2023/02/26 00:01:01;;;;;;;3.2;3.1;;;;;;;0.5;100.0;101610;;;;
2023/02/26 00:02:01;;;;;;;3.2;3.1;;;;;;;0.5;100.0;101610;;;;
2023/02/26 00:03:00;;;;;;;3.2;3.1;;;;;;;0.6;100.0;101610;;;;
2023/02/26 00:04:01;;;;;;;3.2;3.1;;;;;;;0.6;100.0;101610;;;;
2023/02/26 00:05:00;;;;;;;3.2;3.1;;;;;;;0.6;100.0;101610;;;;
2023/02/26 00:06:00;;;;;;;3.2;3.1;;;;;;;0.6;100.0;101610;;;;
2023/02/26 00:07:00;;;;;;;3.2;3.1;;;;;;;0.6;100.0;101620;;;;
2023/02/26 00:08:00;;;;;;;3.2;3.1;;;;;;;0.6;100.0;101620;;;;
2023/02/26 00:09:01;;;;;;;3.2;3.1;;;;;;;0.6;100.0;101610;;;;
2023/02/26 00:10:01;;;;;;;3.2;3.1;;;;;;;0.6;100.0;101610;;;;
2023/02/26 00:11:00;;;;;;;3.2;3.1;;;;;;;0.6;100.0;101620;;;;
2023/02/26 00:12:00;;;;;;;3.4;3.3;;;;;;;0.6;100.0;101620;;;;
2023/02/26 00:13:01;;;;;;;3.4;3.3;;;;;;;0.7;100.0;101620;;;;
2023/02/26 00:14:00;;;;;;;3.4;3.3;;;;;;;0.7;100.0;101620;;;;
2023/02/26 00:15:00;;;;;;;3.4;3.3;;;;;;;0.7;100.0;101620;;;;
2023/02/26 00:16:00;;;;;;;3.4;3.3;;;;;;;0.7;100.0;101620;;;;
2023/02/26 00:17:03;;;;;;;3.4;3.3;;;;;;;0.8;100.0;101620;;;;
2023/02/26 00:18:05;;;;;;;3.4;3.3;;;;;;;0.8;100.0;101620;;;;
2023/02/26 00:19:02;;;;;;;3.4;3.3;;;;;;;0.7;100.0;101630;;;;
2023/02/26 00:20:00;;;;;;;3.4;3.3;;;;;;;0.7;100.0;101630;;;;
2023/02/26 00:21:00;;;;;;;3.4;3.3;;;;;;;0.8;100.0;101630;;;;
2023/02/26 00:22:00;;;;;;;3.4;3.3;;;;;;;0.8;100.0;101630;;;;
2023/02/26 00:23:00;;;;;;;3.4;3.3;;;;;;;0.8;100.0;101630;;;;
2023/02/26 00:24:01;;;;;;;3.4;3.3;;;;;;;0.8;100.0;101630;;;;
2023/02/26 00:25:00;;;;;;;3.4;3.3;;;;;;;0.8;100.0;101630;;;;
2023/02/26 00:26:00;;;;;;;3.4;3.3;;;;;;;0.8;100.0;101630;;;;
2023/02/26 00:27:00;;;;;;;3.4;3.3;;;;;;;0.8;100.0;101620;;;;
2023/02/26 00:28:00;;;;;;;3.4;3.3;;;;;;;0.8;100.0;101620;;;;
2023/02/26 00:29:00;;;;;;;3.4;3.3;;;;;;;0.9;100.0;101630;;;;
2023/02/26 00:30:01;;;;;;;3.4;3.3;;;;;;;0.9;100.0;101630;;;;
2023/02/26 00:31:00;;;;;;;3.4;3.3;;;;;;;0.9;100.0;101630;;;;
2023/02/26 00:32:00;;;;;;;3.6;3.5;;;;;;;0.9;100.0;101630;;;;
2023/02/26 00:33:00;;;;;;;3.6;3.5;;;;;;;1.0;100.0;101640;;;;
2023/02/26 00:34:00;;;;;;;3.6;3.5;;;;;;;1.0;100.0;101640;;;;
2023/02/26 00:35:00;;;;;;;3.6;3.5;;;;;;;1.0;100.0;101640;;;;
2023/02/26 00:36:10;;;;;;;3.6;3.5;;;;;;;1.0;100.0;101640;;;;
2023/02/26 00:37:09;;;;;;;3.6;3.5;;;;;;;1.1;100.0;101640;;;;
2023/02/26 00:38:02;;;;;;;3.6;3.5;;;;;;;1.1;100.0;101640;;;;
2023/02/26 00:39:07;;;;;;;3.6;3.5;;;;;;;1.0;100.0;101650;;;;
2023/02/26 00:40:10;;;;;;;3.6;3.5;;;;;;;1.0;100.0;101650;;;;
2023/02/26 00:41:00;;;;;;;3.6;3.5;;;;;;;1.0;100.0;101650;;;;
2023/02/26 00:42:00;;;;;;;3.6;3.5;;;;;;;1.0;100.0;101650;;;;
2023/02/26 00:43:02;;;;;;;3.6;3.5;;;;;;;1.0;100.0;101650;;;;
2023/02/26 00:44:01;;;;;;;3.6;3.5;;;;;;;1.0;100.0;101650;;;;
2023/02/26 00:45:00;;;;;;;3.6;3.5;;;;;;;1.0;100.0;101660;;;;
2023/02/26 00:46:10;;;;;;;3.6;3.5;;;;;;;1.0;100.0;101660;;;;
2023/02/26 00:47:09;;;;;;;3.6;3.5;;;;;;;1.0;100.0;101660;;;;
2023/02/26 00:48:10;;;;;;;3.6;3.5;;;;;;;1.0;100.0;101660;;;;
2023/02/26 00:49:07;;;;;;;3.6;3.5;;;;;;;0.9;100.0;101660;;;;
2023/02/26 00:50:08;;;;;;;3.6;3.5;;;;;;;0.9;100.0;101660;;;;
2023/02/26 00:51:07;;;;;;;3.6;3.5;;;;;;;0.8;100.0;101660;;;;
2023/02/26 00:52:03;;;;;;;3.2;3.1;;;;;;;0.8;100.0;101660;;;;
2023/02/26 00:53:08;;;;;;;3.2;3.1;;;;;;;0.8;100.0;101660;;;;
2023/02/26 00:54:04;;;;;;;3.2;3.1;;;;;;;0.8;100.0;101660;;;;
2023/02/26 00:55:00;;;;;;;3.2;3.1;;;;;;;0.8;100.0;101660;;;;
2023/02/26 00:56:00;;;;;;;3.2;3.1;;;;;;;0.8;100.0;101660;;;;
2023/02/26 00:57:03;;;;;;;3.2;3.1;;;;;;;0.8;100.0;101660;;;;
2023/02/26 00:58:00;;;;;;;3.2;3.1;;;;;;;0.8;100.0;101660;;;;
2023/02/26 00:59:00;;;;;;;3.2;3.1;;;;;;;0.8;100.0;101660;;;;
2023/02/26 01:00:00;;;;;;;3.2;3.1;;;;;;;0.8;100.0;101660;;;;
2023/02/26 01:01:00;;;;;;;3.2;3.1;;;;;;;0.8;100.0;101670;;;;
2023/02/26 01:02:00;;;;;;;3.2;3.1;;;;;;;0.8;100.0;101670;;;;
2023/02/26 01:03:00;;;;;;;3.2;3.1;;;;;;;0.7;100.0;101670;;;;
2023/02/26 01:04:00;;;;;;;3.2;3.1;;;;;;;0.7;100.0;101670;;;;
2023/02/26 01:05:00;;;;;;;3.2;3.1;;;;;;;0.7;100.0;101680;;;;
2023/02/26 01:06:00;;;;;;;3.2;3.1;;;;;;;0.7;100.0;101680;;;;
2023/02/26 01:07:00;;;;;;;3.2;3.1;;;;;;;0.7;100.0;101680;;;;
2023/02/26 01:08:01;;;;;;;3.2;3.1;;;;;;;0.7;100.0;101680;;;;
2023/02/26 01:09:02;;;;;;;3.2;3.1;;;;;;;0.7;100.0;101680;;;;
2023/02/26 01:10:00;;;;;;;3.2;3.1;;;;;;;0.7;100.0;101680;;;;
2023/02/26 01:11:00;;;;;;;3.2;3.1;;;;;;;0.7;100.0;101680;;;;
2023/02/26 01:12:02;;;;;;;3.0;2.9;;;;;;;0.7;100.0;101680;;;;
2023/02/26 01:13:00;;;;;;;3.0;2.9;;;;;;;0.6;100.0;101680;;;;
2023/02/26 01:14:00;;;;;;;3.0;2.9;;;;;;;0.6;100.0;101680;;;;
2023/02/26 01:15:00;;;;;;;3.0;2.9;;;;;;;0.6;100.0;101680;;;;
2023/02/26 01:16:04;;;;;;;3.0;2.9;;;;;;;0.6;100.0;101680;;;;
2023/02/26 01:17:05;;;;;;;3.0;2.9;;;;;;;0.6;100.0;101680;;;;
2023/02/26 01:18:10;;;;;;;3.0;2.9;;;;;;;0.6;100.0;101680;;;;
2023/02/26 01:19:12;;;;;;;3.0;2.9;;;;;;;0.6;100.0;101680;;;;
2023/02/26 01:20:04;;;;;;;3.0;2.9;;;;;;;0.6;100.0;101680;;;;
2023/02/26 01:21:02;;;;;;;3.0;2.9;;;;;;;0.5;100.0;101670;;;;
2023/02/26 01:22:08;;;;;;;3.0;2.9;;;;;;;0.5;100.0;101670;;;;
2023/02/26 01:23:02;;;;;;;3.0;2.9;;;;;;;0.5;100.0;101680;;;;
2023/02/26 01:24:03;;;;;;;3.0;2.9;;;;;;;0.5;100.0;101680;;;;
2023/02/26 01:25:03;;;;;;;3.0;2.9;;;;;;;0.5;100.0;101670;;;;
2023/02/26 01:26:05;;;;;;;3.0;2.9;;;;;;;0.5;100.0;101670;;;;
2023/02/26 01:27:00;;;;;;;3.0;2.9;;;;;;;0.4;100.0;101680;;;;
2023/02/26 01:28:00;;;;;;;3.0;2.9;;;;;;;0.4;100.0;101680;;;;
2023/02/26 01:29:00;;;;;;;3.0;2.9;;;;;;;0.4;100.0;101680;;;;
2023/02/26 01:30:00;;;;;;;3.0;2.9;;;;;;;0.4;100.0;101680;;;;
2023/02/26 01:31:04;;;;;;;3.0;2.9;;;;;;;0.4;100.0;101680;;;;
2023/02/26 01:32:10;;;;;;;3.4;3.3;;;;;;;0.4;100.0;101680;;;;
2023/02/26 01:33:07;;;;;;;3.4;3.3;;;;;;;0.5;100.0;101670;;;;
2023/02/26 01:34:05;;;;;;;3.4;3.3;;;;;;;0.5;100.0;101670;;;;
2023/02/26 01:35:10;;;;;;;3.4;3.3;;;;;;;0.4;100.0;101670;;;;
2023/02/26 01:36:07;;;;;;;3.4;3.3;;;;;;;0.4;100.0;101670;;;;
2023/02/26 01:37:10;;;;;;;3.4;3.3;;;;;;;0.4;100.0;101680;;;;
2023/02/26 01:38:03;;;;;;;3.4;3.3;;;;;;;0.4;100.0;101680;;;;
2023/02/26 01:39:06;;;;;;;3.4;3.3;;;;;;;0.3;100.0;101680;;;;
2023/02/26 01:40:00;;;;;;;3.4;3.3;;;;;;;0.3;100.0;101680;;;;
2023/02/26 01:41:09;;;;;;;3.4;3.3;;;;;;;0.3;100.0;101690;;;;
2023/02/26 01:42:10;;;;;;;3.4;3.3;;;;;;;0.3;100.0;101690;;;;
2023/02/26 01:43:04;;;;;;;3.4;3.3;;;;;;;0.3;100.0;101690;;;;
2023/02/26 01:44:03;;;;;;;3.4;3.3;;;;;;;0.3;100.0;101690;;;;
2023/02/26 01:45:10;;;;;;;3.4;3.3;;;;;;;0.3;100.0;101700;;;;
2023/02/26 01:46:05;;;;;;;3.4;3.3;;;;;;;0.3;100.0;101700;;;;
2023/02/26 01:47:10;;;;;;;3.4;3.3;;;;;;;0.3;100.0;101700;;;;
2023/02/26 01:48:04;;;;;;;3.4;3.3;;;;;;;0.3;100.0;101700;;;;
2023/02/26 01:49:01;;;;;;;3.4;3.3;;;;;;;0.1;100.0;101700;;;;
2023/02/26 01:50:11;;;;;;;3.4;3.3;;;;;;;0.1;100.0;101700;;;;
2023/02/26 01:51:00;;;;;;;3.4;3.3;;;;;;;0.2;100.0;101700;;;;
2023/02/26 01:52:02;;;;;;;3.6;3.5;;;;;;;0.2;100.0;101700;;;;
2023/02/26 01:53:04;;;;;;;3.6;3.5;;;;;;;0.2;100.0;101700;;;;
2023/02/26 01:54:00;;;;;;;3.6;3.5;;;;;;;0.2;100.0;101700;;;;
2023/02/26 01:55:00;;;;;;;3.6;3.5;;;;;;;0.1;100.0;101700;;;;
2023/02/26 01:56:03;;;;;;;3.6;3.5;;;;;;;0.1;100.0;101700;;;;
2023/02/26 01:57:04;;;;;;;3.6;3.5;;;;;;;0.1;100.0;101700;;;;
2023/02/26 01:58:01;;;;;;;3.6;3.5;;;;;;;0.1;100.0;101700;;;;
2023/02/26 01:59:04;;;;;;;3.6;3.5;;;;;;;0.1;100.0;101710;;;;
2023/02/26 02:00:00;;;;;;;3.6;3.5;;;;;;;0.1;100.0;101710;;;;
2023/02/26 02:01:00;;;;;;;3.6;3.5;;;;;;;0.2;100.0;101710;;;;
2023/02/26 02:02:02;;;;;;;3.6;3.5;;;;;;;0.2;100.0;101710;;;;
2023/02/26 02:03:01;;;;;;;3.6;3.5;;;;;;;0.1;100.0;101710;;;;
2023/02/26 02:04:01;;;;;;;3.6;3.5;;;;;;;0.1;100.0;101710;;;;
2023/02/26 02:05:10;;;;;;;3.6;3.5;;;;;;;0.1;100.0;101720;;;;
2023/02/26 02:06:03;;;;;;;3.6;3.5;;;;;;;0.1;100.0;101720;;;;
2023/02/26 02:07:01;;;;;;;3.6;3.5;;;;;;;0.1;100.0;101720;;;;
2023/02/26 02:08:00;;;;;;;3.6;3.5;;;;;;;0.1;100.0;101720;;;;
2023/02/26 02:09:02;;;;;;;3.6;3.5;;;;;;;0.1;100.0;101720;;;;
2023/02/26 02:10:00;;;;;;;3.6;3.5;;;;;;;0.1;100.0;101720;;;;
2023/02/26 02:11:02;;;;;;;3.6;3.5;;;;;;;0.0;100.0;101720;;;;
2023/02/26 02:12:10;;;;;;;3.3;3.2;;;;;;;0.0;100.0;101720;;;;
2023/02/26 02:13:00;;;;;;;3.3;3.2;;;;;;;-0.0;100.0;101730;;;;
2023/02/26 02:14:10;;;;;;;3.3;3.2;;;;;;;-0.0;100.0;101730;;;;
2023/02/26 02:15:00;;;;;;;3.3;3.2;;;;;;;0.1;100.0;101730;;;;
2023/02/26 02:16:10;;;;;;;3.3;3.2;;;;;;;0.1;100.0;101730;;;;
2023/02/26 02:17:09;;;;;;;3.3;3.2;;;;;;;0.1;100.0;101730;;;;
2023/02/26 02:18:01;;;;;;;3.3;3.2;;;;;;;0.1;100.0;101730;;;;
2023/02/26 02:19:00;;;;;;;3.3;3.2;;;;;;;0.1;100.0;101730;;;;
2023/02/26 02:20:10;;;;;;;3.3;3.2;;;;;;;0.1;100.0;101730;;;;
2023/02/26 02:21:01;;;;;;;3.3;3.2;;;;;;;-0.1;100.0;101730;;;;
2023/02/26 02:22:10;;;;;;;3.3;3.2;;;;;;;-0.1;100.0;101730;;;;
2023/02/26 02:23:09;;;;;;;3.3;3.2;;;;;;;-0.0;100.0;101730;;;;
2023/02/26 02:25:10;;;;;;;3.3;3.2;;;;;;;-0.0;100.0;101740;;;;
2023/02/26 02:26:10;;;;;;;3.3;3.2;;;;;;;-0.0;100.0;101740;;;;
2023/02/26 02:27:00;;;;;;;3.3;3.2;;;;;;;-0.0;100.0;101740;;;;
2023/02/26 02:28:13;;;;;;;3.3;3.2;;;;;;;-0.0;100.0;101740;;;;
2023/02/26 02:29:03;;;;;;;3.3;3.2;;;;;;;0.0;100.0;101740;;;;
2023/02/26 02:30:06;;;;;;;3.3;3.2;;;;;;;0.0;100.0;101740;;;;
2023/02/26 02:31:07;;;;;;;3.4;3.3;;;;;;;0.0;100.0;101750;;;;
2023/02/26 02:32:05;;;;;;;3.4;3.3;;;;;;;0.0;100.0;101750;;;;
2023/02/26 02:33:03;;;;;;;3.4;3.3;;;;;;;-0.1;100.0;101750;;;;
2023/02/26 02:34:09;;;;;;;3.4;3.3;;;;;;;-0.1;100.0;101750;;;;
2023/02/26 02:35:10;;;;;;;3.4;3.3;;;;;;;-0.1;100.0;101750;;;;
2023/02/26 02:36:04;;;;;;;3.4;3.3;;;;;;;-0.1;100.0;101750;;;;
2023/02/26 02:37:04;;;;;;;3.4;3.3;;;;;;;-0.0;100.0;101750;;;;
2023/02/26 02:38:10;;;;;;;3.4;3.3;;;;;;;-0.0;100.0;101750;;;;
2023/02/26 02:39:08;;;;;;;3.4;3.3;;;;;;;-0.0;100.0;101750;;;;
2023/02/26 02:40:03;;;;;;;3.4;3.3;;;;;;;-0.0;100.0;101750;;;;
2023/02/26 02:41:10;;;;;;;3.4;3.3;;;;;;;-0.1;100.0;101750;;;;
2023/02/26 02:42:00;;;;;;;3.4;3.3;;;;;;;-0.1;100.0;101750;;;;
2023/02/26 02:43:01;;;;;;;3.4;3.3;;;;;;;-0.1;100.0;101760;;;;
2023/02/26 02:44:02;;;;;;;3.4;3.3;;;;;;;-0.1;100.0;101760;;;;
2023/02/26 02:45:04;;;;;;;3.4;3.3;;;;;;;-0.1;100.0;101760;;;;
2023/02/26 02:46:04;;;;;;;3.4;3.3;;;;;;;-0.1;100.0;101760;;;;
2023/02/26 02:47:02;;;;;;;3.4;3.3;;;;;;;-0.1;100.0;101760;;;;
2023/02/26 02:48:04;;;;;;;3.4;3.3;;;;;;;-0.1;100.0;101760;;;;
2023/02/26 02:49:03;;;;;;;3.4;3.3;;;;;;;-0.1;100.0;101760;;;;
2023/02/26 02:50:01;;;;;;;3.4;3.3;;;;;;;-0.1;100.0;101760;;;;
2023/02/26 02:51:02;;;;;;;3.5;3.4;;;;;;;-0.2;100.0;101760;;;;
2023/02/26 02:52:09;;;;;;;3.5;3.4;;;;;;;-0.2;100.0;101760;;;;
2023/02/26 02:53:03;;;;;;;3.5;3.4;;;;;;;-0.2;100.0;101770;;;;
2023/02/26 02:54:07;;;;;;;3.5;3.4;;;;;;;-0.2;100.0;101770;;;;
2023/02/26 02:55:04;;;;;;;3.5;3.4;;;;;;;-0.2;100.0;101770;;;;
2023/02/26 02:56:08;;;;;;;3.5;3.4;;;;;;;-0.2;100.0;101770;;;;
2023/02/26 02:57:05;;;;;;;3.5;3.4;;;;;;;-0.2;100.0;101770;;;;
2023/02/26 02:58:05;;;;;;;3.5;3.4;;;;;;;-0.2;100.0;101770;;;;
2023/02/26 02:59:05;;;;;;;3.5;3.4;;;;;;;-0.2;100.0;101780;;;;
2023/02/26 03:00:04;;;;;;;3.5;3.4;;;;;;;-0.2;100.0;101780;;;;
2023/02/26 03:01:02;;;;;;;3.5;3.4;;;;;;;-0.2;100.0;101780;;;;
2023/02/26 03:02:06;;;;;;;3.5;3.4;;;;;;;-0.2;100.0;101780;;;;
2023/02/26 03:03:10;;;;;;;3.5;3.4;;;;;;;-0.2;100.0;101780;;;;
2023/02/26 03:04:05;;;;;;;3.5;3.4;;;;;;;-0.2;100.0;101780;;;;
2023/02/26 03:05:00;;;;;;;3.5;3.4;;;;;;;-0.2;100.0;101790;;;;
2023/02/26 03:06:00;;;;;;;3.5;3.4;;;;;;;-0.2;100.0;101790;;;;
2023/02/26 03:07:00;;;;;;;3.5;3.4;;;;;;;-0.2;100.0;101780;;;;
2023/02/26 03:08:04;;;;;;;3.5;3.4;;;;;;;-0.2;100.0;101780;;;;
2023/02/26 03:09:03;;;;;;;3.5;3.4;;;;;;;-0.3;100.0;101780;;;;
2023/02/26 03:10:00;;;;;;;3.5;3.4;;;;;;;-0.3;100.0;101780;;;;
2023/02/26 03:11:00;;;;;;;4.8;4.7;;;;;;;-0.4;100.0;101780;;;;
2023/02/26 03:12:01;;;;;;;4.8;4.7;;;;;;;-0.4;100.0;101780;;;;
2023/02/26 03:13:00;;;;;;;4.8;4.7;;;;;;;-0.3;100.0;101780;;;;
2023/02/26 03:14:01;;;;;;;4.8;4.7;;;;;;;-0.3;100.0;101780;;;;
2023/02/26 03:15:01;;;;;;;4.8;4.7;;;;;;;-0.3;100.0;101790;;;;
2023/02/26 03:16:08;;;;;;;4.8;4.7;;;;;;;-0.3;100.0;101790;;;;
2023/02/26 03:17:07;;;;;;;4.8;4.7;;;;;;;-0.3;100.0;101790;;;;
2023/02/26 03:18:05;;;;;;;4.8;4.7;;;;;;;-0.3;100.0;101790;;;;
2023/02/26 03:19:10;;;;;;;4.8;4.7;;;;;;;-0.4;100.0;101790;;;;
2023/02/26 03:20:01;;;;;;;4.8;4.7;;;;;;;-0.4;100.0;101790;;;;
2023/02/26 03:21:00;;;;;;;4.8;4.7;;;;;;;-0.3;100.0;101790;;;;
2023/02/26 03:22:03;;;;;;;4.8;4.7;;;;;;;-0.3;100.0;101790;;;;
2023/02/26 03:23:00;;;;;;;4.8;4.7;;;;;;;-0.3;100.0;101800;;;;
2023/02/26 03:24:10;;;;;;;4.8;4.7;;;;;;;-0.3;100.0;101800;;;;
2023/02/26 03:25:10;;;;;;;4.8;4.7;;;;;;;-0.4;100.0;101800;;;;
2023/02/26 03:26:09;;;;;;;4.8;4.7;;;;;;;-0.4;100.0;101800;;;;
2023/02/26 03:27:06;;;;;;;4.8;4.7;;;;;;;-0.3;100.0;101810;;;;
2023/02/26 03:28:00;;;;;;;4.8;4.7;;;;;;;-0.3;100.0;101810;;;;
2023/02/26 03:29:00;;;;;;;4.8;4.7;;;;;;;-0.5;100.0;101810;;;;
2023/02/26 03:30:05;;;;;;;4.8;4.7;;;;;;;-0.5;100.0;101810;;;;
2023/02/26 03:31:06;;;;;;;3.6;3.5;;;;;;;-0.5;100.0;101810;;;;
2023/02/26 03:32:04;;;;;;;3.6;3.5;;;;;;;-0.5;100.0;101810;;;;
2023/02/26 03:33:05;;;;;;;3.6;3.5;;;;;;;-0.4;100.0;101810;;;;
2023/02/26 03:34:07;;;;;;;3.6;3.5;;;;;;;-0.4;100.0;101810;;;;
2023/02/26 03:35:04;;;;;;;3.6;3.5;;;;;;;-0.4;100.0;101820;;;;
2023/02/26 03:36:07;;;;;;;3.6;3.5;;;;;;;-0.4;100.0;101820;;;;
2023/02/26 03:37:03;;;;;;;3.6;3.5;;;;;;;-0.4;100.0;101820;;;;
2023/02/26 03:38:02;;;;;;;3.6;3.5;;;;;;;-0.4;100.0;101820;;;;
2023/02/26 03:39:01;;;;;;;3.6;3.5;;;;;;;-0.4;100.0;101820;;;;
2023/02/26 03:40:04;;;;;;;3.6;3.5;;;;;;;-0.4;100.0;101820;;;;
2023/02/26 03:41:03;;;;;;;3.6;3.5;;;;;;;-0.5;100.0;101830;;;;
2023/02/26 03:42:00;;;;;;;3.6;3.5;;;;;;;-0.5;100.0;101830;;;;
2023/02/26 03:43:04;;;;;;;3.6;3.5;;;;;;;-0.6;100.0;101830;;;;
2023/02/26 03:44:04;;;;;;;3.6;3.5;;;;;;;-0.6;100.0;101830;;;;
2023/02/26 03:45:00;;;;;;;3.6;3.5;;;;;;;-0.6;100.0;101830;;;;
2023/02/26 03:46:03;;;;;;;3.6;3.5;;;;;;;-0.6;100.0;101830;;;;
2023/02/26 03:47:04;;;;;;;3.6;3.5;;;;;;;-0.6;100.0;101840;;;;
2023/02/26 03:48:01;;;;;;;3.6;3.5;;;;;;;-0.6;100.0;101840;;;;
2023/02/26 03:49:04;;;;;;;3.6;3.5;;;;;;;-0.7;100.0;101830;;;;
2023/02/26 03:50:00;;;;;;;3.6;3.5;;;;;;;-0.7;100.0;101830;;;;
2023/02/26 03:51:03;;;;;;;3.6;3.5;;;;;;;-0.6;100.0;101840;;;;
2023/02/26 03:52:01;;;;;;;3.6;3.5;;;;;;;-0.6;100.0;101840;;;;
2023/02/26 03:53:01;;;;;;;3.6;3.5;;;;;;;-0.6;100.0;101840;;;;
2023/02/26 03:54:04;;;;;;;3.6;3.5;;;;;;;-0.6;100.0;101840;;;;
2023/02/26 03:55:05;;;;;;;3.6;3.5;;;;;;;-0.7;100.0;101840;;;;
2023/02/26 03:56:01;;;;;;;3.6;3.5;;;;;;;-0.7;100.0;101840;;;;
2023/02/26 03:57:00;;;;;;;3.6;3.5;;;;;;;-0.7;100.0;101840;;;;
2023/02/26 03:58:00;;;;;;;3.6;3.5;;;;;;;-0.7;100.0;101840;;;;
2023/02/26 03:59:00;;;;;;;3.6;3.5;;;;;;;-0.7;100.0;101830;;;;
2023/02/26 04:00:00;;;;;;;3.6;3.5;;;;;;;-0.7;100.0;101830;;;;
2023/02/26 04:01:05;;;;;;;3.6;3.5;;;;;;;-0.6;100.0;101840;;;;
2023/02/26 04:02:03;;;;;;;3.6;3.5;;;;;;;-0.6;100.0;101840;;;;
2023/02/26 04:03:04;;;;;;;3.6;3.5;;;;;;;-0.6;100.0;101840;;;;
2023/02/26 04:04:10;;;;;;;3.6;3.5;;;;;;;-0.6;100.0;101840;;;;
2023/02/26 04:05:10;;;;;;;3.6;3.5;;;;;;;-0.6;100.0;101840;;;;
2023/02/26 04:06:01;;;;;;;3.6;3.5;;;;;;;-0.6;100.0;101840;;;;
2023/02/26 04:07:01;;;;;;;3.6;3.5;;;;;;;-0.7;100.0;101840;;;;
2023/02/26 04:08:01;;;;;;;3.6;3.5;;;;;;;-0.7;100.0;101840;;;;
2023/02/26 04:09:00;;;;;;;3.6;3.5;;;;;;;-0.6;100.0;101840;;;;
2023/02/26 04:10:00;;;;;;;3.6;3.5;;;;;;;-0.6;100.0;101840;;;;
2023/02/26 04:11:06;;;;;;;3.7;3.6;;;;;;;-0.6;100.0;101850;;;;
2023/02/26 04:12:00;;;;;;;3.7;3.6;;;;;;;-0.6;100.0;101850;;;;
2023/02/26 04:13:01;;;;;;;3.7;3.6;;;;;;;-0.6;100.0;101850;;;;
2023/02/26 04:14:00;;;;;;;3.7;3.6;;;;;;;-0.6;100.0;101850;;;;
2023/02/26 04:15:00;;;;;;;3.7;3.6;;;;;;;-0.6;100.0;101850;;;;
2023/02/26 04:16:00;;;;;;;3.7;3.6;;;;;;;-0.6;100.0;101850;;;;
2023/02/26 04:17:00;;;;;;;3.7;3.6;;;;;;;-0.7;100.0;101850;;;;
2023/02/26 04:18:00;;;;;;;3.7;3.6;;;;;;;-0.7;100.0;101850;;;;
2023/02/26 04:19:00;;;;;;;3.7;3.6;;;;;;;-0.8;100.0;101860;;;;
2023/02/26 04:20:00;;;;;;;3.7;3.6;;;;;;;-0.8;100.0;101860;;;;
2023/02/26 04:21:00;;;;;;;3.7;3.6;;;;;;;-0.7;100.0;101860;;;;
2023/02/26 04:22:00;;;;;;;3.7;3.6;;;;;;;-0.7;100.0;101860;;;;
2023/02/26 04:23:00;;;;;;;3.7;3.6;;;;;;;-0.8;100.0;101860;;;;
2023/02/26 04:24:00;;;;;;;3.7;3.6;;;;;;;-0.8;100.0;101860;;;;
2023/02/26 04:25:00;;;;;;;3.7;3.6;;;;;;;-0.8;100.0;101860;;;;
2023/02/26 04:26:00;;;;;;;3.7;3.6;;;;;;;-0.8;100.0;101860;;;;
2023/02/26 04:27:00;;;;;;;3.7;3.6;;;;;;;-0.8;100.0;101860;;;;
2023/02/26 04:28:00;;;;;;;3.7;3.6;;;;;;;-0.8;100.0;101860;;;;
2023/02/26 04:29:00;;;;;;;3.7;3.6;;;;;;;-0.9;100.0;101870;;;;
2023/02/26 04:30:00;;;;;;;3.7;3.6;;;;;;;-0.9;100.0;101870;;;;
2023/02/26 04:31:00;;;;;;;3.7;3.6;;;;;;;-0.8;100.0;101870;;;;
2023/02/26 04:32:00;;;;;;;3.7;3.6;;;;;;;-0.8;100.0;101870;;;;
2023/02/26 04:33:00;;;;;;;3.7;3.6;;;;;;;-0.8;100.0;101870;;;;
2023/02/26 04:34:00;;;;;;;3.7;3.6;;;;;;;-0.8;100.0;101870;;;;
2023/02/26 04:35:00;;;;;;;3.7;3.6;;;;;;;-0.9;100.0;101870;;;;
2023/02/26 04:36:00;;;;;;;3.7;3.6;;;;;;;-0.9;100.0;101870;;;;
2023/02/26 04:37:00;;;;;;;3.7;3.6;;;;;;;-1.0;100.0;101870;;;;
2023/02/26 04:38:00;;;;;;;3.7;3.6;;;;;;;-1.0;100.0;101870;;;;
2023/02/26 04:39:00;;;;;;;3.7;3.6;;;;;;;-1.0;100.0;101880;;;;
2023/02/26 04:40:00;;;;;;;3.7;3.6;;;;;;;-1.0;100.0;101880;;;;
2023/02/26 04:41:00;;;;;;;3.7;3.6;;;;;;;-0.8;100.0;101880;;;;
2023/02/26 04:42:00;;;;;;;3.7;3.6;;;;;;;-0.8;100.0;101880;;;;
2023/02/26 04:43:00;;;;;;;3.7;3.6;;;;;;;-0.9;100.0;101880;;;;
2023/02/26 04:44:00;;;;;;;3.7;3.6;;;;;;;-0.9;100.0;101880;;;;
2023/02/26 04:45:00;;;;;;;3.7;3.6;;;;;;;-0.9;100.0;101880;;;;
2023/02/26 04:46:00;;;;;;;3.7;3.6;;;;;;;-0.9;100.0;101880;;;;
2023/02/26 04:47:00;;;;;;;3.7;3.6;;;;;;;-1.1;100.0;101880;;;;
2023/02/26 04:48:00;;;;;;;3.7;3.6;;;;;;;-1.1;100.0;101880;;;;
2023/02/26 04:49:00;;;;;;;3.7;3.6;;;;;;;-1.0;100.0;101890;;;;
2023/02/26 04:50:00;;;;;;;3.7;3.6;;;;;;;-1.0;100.0;101890;;;;
2023/02/26 04:51:00;;;;;;;4.1;4.0;;;;;;;-1.0;100.0;101900;;;;
2023/02/26 04:52:00;;;;;;;4.1;4.0;;;;;;;-1.0;100.0;101900;;;;
2023/02/26 04:53:00;;;;;;;4.1;4.0;;;;;;;-1.0;100.0;101900;;;;
2023/02/26 04:54:00;;;;;;;4.1;4.0;;;;;;;-1.0;100.0;101900;;;;
2023/02/26 04:55:00;;;;;;;4.1;4.0;;;;;;;-1.0;100.0;101900;;;;
2023/02/26 04:56:00;;;;;;;4.1;4.0;;;;;;;-1.0;100.0;101900;;;;
2023/02/26 04:57:00;;;;;;;4.1;4.0;;;;;;;-1.0;100.0;101900;;;;
2023/02/26 04:58:00;;;;;;;4.1;4.0;;;;;;;-1.0;100.0;101900;;;;
2023/02/26 04:59:00;;;;;;;4.1;4.0;;;;;;;-1.1;100.0;101900;;;;
2023/02/26 05:00:00;;;;;;;4.1;4.0;;;;;;;-1.1;100.0;101900;;;;
2023/02/26 05:01:00;;;;;;;4.1;4.0;;;;;;;-1.1;100.0;101910;;;;
2023/02/26 05:02:00;;;;;;;4.1;4.0;;;;;;;-1.1;100.0;101910;;;;
2023/02/26 05:03:00;;;;;;;4.1;4.0;;;;;;;-1.1;100.0;101910;;;;
2023/02/26 05:04:00;;;;;;;4.1;4.0;;;;;;;-1.1;100.0;101910;;;;
2023/02/26 05:05:00;;;;;;;4.1;4.0;;;;;;;-1.0;100.0;101910;;;;
2023/02/26 05:06:00;;;;;;;4.1;4.0;;;;;;;-1.0;100.0;101910;;;;
2023/02/26 05:07:00;;;;;;;4.1;4.0;;;;;;;-1.0;100.0;101910;;;;
2023/02/26 05:08:01;;;;;;;4.1;4.0;;;;;;;-1.0;100.0;101910;;;;
2023/02/26 05:09:00;;;;;;;4.1;4.0;;;;;;;-1.1;100.0;101920;;;;
2023/02/26 05:10:00;;;;;;;4.1;4.0;;;;;;;-1.1;100.0;101920;;;;
2023/02/26 05:11:00;;;;;;;4.1;4.0;;;;;;;-1.1;100.0;101920;;;;
2023/02/26 05:12:00;;;;;;;4.1;4.0;;;;;;;-1.1;100.0;101920;;;;
2023/02/26 05:13:00;;;;;;;4.1;4.0;;;;;;;-1.0;100.0;101920;;;;
2023/02/26 05:14:00;;;;;;;4.1;4.0;;;;;;;-1.0;100.0;101920;;;;
2023/02/26 05:15:00;;;;;;;4.1;4.0;;;;;;;-1.1;100.0;101920;;;;
2023/02/26 05:16:00;;;;;;;4.1;4.0;;;;;;;-1.1;100.0;101920;;;;
2023/02/26 05:17:00;;;;;;;4.1;4.0;;;;;;;-1.1;100.0;101920;;;;
2023/02/26 05:18:00;;;;;;;4.1;4.0;;;;;;;-1.1;100.0;101920;;;;
2023/02/26 05:19:00;;;;;;;4.1;4.0;;;;;;;-1.1;100.0;101930;;;;
2023/02/26 05:20:00;;;;;;;4.1;4.0;;;;;;;-1.1;100.0;101930;;;;
2023/02/26 05:21:00;;;;;;;4.1;4.0;;;;;;;-1.1;100.0;101930;;;;
2023/02/26 05:22:00;;;;;;;4.1;4.0;;;;;;;-1.1;100.0;101930;;;;
2023/02/26 05:23:00;;;;;;;4.1;4.0;;;;;;;-1.1;100.0;101930;;;;
2023/02/26 05:24:00;;;;;;;4.1;4.0;;;;;;;-1.1;100.0;101930;;;;
2023/02/26 05:25:00;;;;;;;4.1;4.0;;;;;;;-1.1;100.0;101930;;;;
2023/02/26 05:26:00;;;;;;;4.1;4.0;;;;;;;-1.1;100.0;101930;;;;
2023/02/26 05:27:00;;;;;;;4.1;4.0;;;;;;;-1.1;100.0;101940;;;;
2023/02/26 05:28:00;;;;;;;4.1;4.0;;;;;;;-1.1;100.0;101940;;;;
2023/02/26 05:29:01;;;;;;;4.1;4.0;;;;;;;-1.2;100.0;101940;;;;
2023/02/26 05:30:00;;;;;;;4.1;4.0;;;;;;;-1.2;100.0;101940;;;;
2023/02/26 05:31:00;;;;;;;4.3;4.2;;;;;;;-1.2;100.0;101940;;;;
2023/02/26 05:32:01;;;;;;;4.3;4.2;;;;;;;-1.2;100.0;101940;;;;
2023/02/26 05:33:00;;;;;;;4.3;4.2;;;;;;;-1.2;100.0;101940;;;;
2023/02/26 05:34:00;;;;;;;4.3;4.2;;;;;;;-1.2;100.0;101940;;;;
2023/02/26 05:35:01;;;;;;;4.3;4.2;;;;;;;-1.2;100.0;101940;;;;
2023/02/26 05:36:00;;;;;;;4.3;4.2;;;;;;;-1.2;100.0;101940;;;;
2023/02/26 05:37:00;;;;;;;4.3;4.2;;;;;;;-1.2;100.0;101940;;;;
2023/02/26 05:38:00;;;;;;;4.3;4.2;;;;;;;-1.2;100.0;101940;;;;
2023/02/26 05:39:00;;;;;;;4.3;4.2;;;;;;;-1.3;100.0;101930;;;;
2023/02/26 05:40:00;;;;;;;4.3;4.2;;;;;;;-1.3;100.0;101930;;;;
2023/02/26 05:41:00;;;;;;;4.3;4.2;;;;;;;-1.4;100.0;101940;;;;
2023/02/26 05:42:00;;;;;;;4.3;4.2;;;;;;;-1.4;100.0;101940;;;;
2023/02/26 05:43:00;;;;;;;4.3;4.2;;;;;;;-1.4;100.0;101940;;;;
2023/02/26 05:44:01;;;;;;;4.3;4.2;;;;;;;-1.4;100.0;101940;;;;
2023/02/26 05:45:00;;;;;;;4.3;4.2;;;;;;;-1.4;100.0;101940;;;;
2023/02/26 05:46:00;;;;;;;4.3;4.2;;;;;;;-1.4;100.0;101940;;;;
2023/02/26 05:47:01;;;;;;;4.3;4.2;;;;;;;-1.5;100.0;101940;;;;
2023/02/26 05:48:00;;;;;;;4.3;4.2;;;;;;;-1.5;100.0;101940;;;;
2023/02/26 05:49:00;;;;;;;4.3;4.2;;;;;;;-1.4;100.0;101950;;;;
2023/02/26 05:50:00;;;;;;;4.5;4.4;;;;;;;-1.4;100.0;101950;;;;
2023/02/26 05:51:01;;;;;;;4.5;4.4;;;;;;;-1.4;100.0;101950;;;;
2023/02/26 05:52:00;;;;;;;4.5;4.4;;;;;;;-1.4;100.0;101950;;;;
2023/02/26 05:53:00;;;;;;;4.5;4.4;;;;;;;-1.4;100.0;101960;;;;
2023/02/26 05:54:00;;;;;;;4.5;4.4;;;;;;;-1.4;100.0;101960;;;;
2023/02/26 05:55:00;;;;;;;4.5;4.4;;;;;;;-1.5;100.0;101950;;;;
2023/02/26 05:56:00;;;;;;;4.5;4.4;;;;;;;-1.5;100.0;101950;;;;
2023/02/26 05:57:00;;;;;;;4.5;4.4;;;;;;;-1.4;100.0;101960;;;;
2023/02/26 05:58:00;;;;;;;4.5;4.4;;;;;;;-1.4;100.0;101960;;;;
2023/02/26 05:59:00;;;;;;;4.5;4.4;;;;;;;-1.5;100.0;101960;;;;
2023/02/26 06:00:00;;;;;;;4.5;4.4;;;;;;;-1.5;100.0;101960;;;;
2023/02/26 06:01:00;;;;;;;4.5;4.4;;;;;;;-1.5;100.0;101960;;;;
2023/02/26 06:02:00;;;;;;;4.5;4.4;;;;;;;-1.5;100.0;101960;;;;
2023/02/26 06:03:00;;;;;;;4.5;4.4;;;;;;;-1.5;100.0;101970;;;;
2023/02/26 06:04:00;;;;;;;4.5;4.4;;;;;;;-1.5;100.0;101970;;;;
2023/02/26 06:05:00;;;;;;;4.5;4.4;;;;;;;-1.4;100.0;101970;;;;
2023/02/26 06:06:00;;;;;;;4.5;4.4;;;;;;;-1.4;100.0;101970;;;;
2023/02/26 06:07:00;;;;;;;4.5;4.4;;;;;;;-1.3;100.0;101970;;;;
2023/02/26 06:08:00;;;;;;;4.5;4.4;;;;;;;-1.3;100.0;101970;;;;
2023/02/26 06:09:01;;;;;;;4.5;4.4;;;;;;;-1.4;100.0;101970;;;;
2023/02/26 06:10:00;;;;;;;4.4;4.3;;;;;;;-1.4;100.0;101970;;;;
2023/02/26 06:11:00;;;;;;;4.4;4.3;;;;;;;-1.5;100.0;101980;;;;
2023/02/26 06:12:00;;;;;;;4.4;4.3;;;;;;;-1.5;100.0;101980;;;;
2023/02/26 06:13:00;;;;;;;4.4;4.3;;;;;;;-1.5;100.0;101980;;;;
2023/02/26 06:14:00;;;;;;;4.4;4.3;;;;;;;-1.5;100.0;101980;;;;
2023/02/26 06:15:00;;;;;;;4.4;4.3;;;;;;;-1.5;100.0;101980;;;;
2023/02/26 06:16:00;;;;;;;4.4;4.3;;;;;;;-1.5;100.0;101980;;;;
2023/02/26 06:17:01;;;;;;;4.4;4.3;;;;;;;-1.6;100.0;101990;;;;
2023/02/26 06:18:00;;;;;;;4.4;4.3;;;;;;;-1.6;100.0;101990;;;;
2023/02/26 06:19:01;;;;;;;4.4;4.3;;;;;;;-1.6;100.0;101990;;;;
2023/02/26 06:20:02;;;;;;;4.4;4.3;;;;;;;-1.6;100.0;101990;;;;
2023/02/26 06:21:00;;;;;;;4.4;4.3;;;;;;;-1.6;100.0;101990;;;;
2023/02/26 06:22:00;;;;;;;4.4;4.3;;;;;;;-1.6;100.0;101990;;;;
2023/02/26 06:23:00;;;;;;;4.4;4.3;;;;;;;-1.5;100.0;101990;;;;
2023/02/26 06:24:00;;;;;;;4.4;4.3;;;;;;;-1.5;100.0;101990;;;;
2023/02/26 06:25:00;;;;;;;4.4;4.3;;;;;;;-1.6;100.0;101990;;;;
2023/02/26 06:26:00;;;;;;;4.4;4.3;;;;;;;-1.6;100.0;101990;;;;